バンギ の空港の天気 - METARとTAF

バンギ・ムポコ国際空港 ( FEFF / BGF ) - 中央アフリカ バンギ
飛行場実況気象(Metar)
観測時間08/05 07:00 WAT (08/05 06:00 UTC)
風向・風速静穏 0m/s
視程6000m
天気現象弱い雨
全天の4割程度の雲 雲底高度 90m
気温24℃
湿度94%
気圧1014hPa
METARFEFF 050600Z 00000KT 6000 -RA SCT003 24/23 Q1014 BECMG 4000 BR BKN004
過去の天気等 Google飛行場航空写真 Wunderground天気予報

過去48時間のMETAR

飛行場予報(TAF)
発表時間: 8/05 06:00 WAT (8/05 05:00 UTC)
予報対象時間: 5日7時 WAT ~ 6日13時 WAT
風向・風速南西 3m/s
視程10km以上
全天の8割程度の雲 雲底高度 400m
5日11時 WAT ~ 5日13時 WAT に徐々に
全天の8割程度の雲 雲底高度 610m
少しの積乱雲 雲底高度 1220m
5日14時 WAT ~ 5日17時 WAT に一時的に
風向・風速東 8m/s
視程4000m
天気現象雷雨
5日19時 WAT ~ 5日21時 WAT に徐々に
風向・風速不定 2m/s
視程8000m
全天の4割程度の雲 雲底高度 m
TAF FEFF 050500Z 0506/0612 22006KT 9999 BKN013
BECMG 0510/0512 BKN020 FEW040CB
TEMPO 0513/0516 09015KT 4000 TSRA
BECMG 0518/0520 VRB03KT 8000 SCT10